createdAt,value
2023-04-09T00:01:35.752Z,97392.47
2023-04-09T00:04:02.236Z,97391.25
2023-04-09T00:06:28.704Z,97399.63
2023-04-09T00:08:55.079Z,97399.47
2023-04-09T00:11:21.697Z,97393.34
2023-04-09T00:13:49.246Z,97400.88
2023-04-09T00:16:15.727Z,97395.94
2023-04-09T00:18:42.232Z,97396.97
2023-04-09T00:21:09.020Z,97402.75
2023-04-09T00:23:36.026Z,97401.81
2023-04-09T00:26:02.716Z,97400.00
2023-04-09T00:28:29.256Z,97397.28
2023-04-09T00:30:55.871Z,97409.13
2023-04-09T00:33:22.359Z,97404.94
2023-04-09T00:35:49.005Z,97405.75
2023-04-09T00:38:15.498Z,97404.81
2023-04-09T00:40:42.220Z,97395.63
2023-04-09T00:43:08.873Z,97403.34
2023-04-09T00:45:36.332Z,97400.72
2023-04-09T00:48:02.895Z,97398.97
2023-04-09T00:50:29.322Z,97402.38
2023-04-09T00:52:56.152Z,97395.41
2023-04-09T00:55:22.720Z,97399.75
2023-04-09T00:57:49.120Z,97394.69
2023-04-09T01:00:15.797Z,97400.56
2023-04-09T01:02:43.686Z,97392.25
2023-04-09T01:05:12.338Z,97395.16
2023-04-09T01:07:54.845Z,97381.66
2023-04-09T01:10:38.136Z,97387.56
2023-04-09T01:13:11.777Z,97379.31
2023-04-09T01:15:46.766Z,97386.94
2023-04-09T01:18:29.397Z,97394.09
2023-04-09T01:21:02.706Z,97387.94
2023-04-09T01:23:42.769Z,97378.28
2023-04-09T01:26:22.745Z,97372.53
2023-04-09T01:28:54.264Z,97389.50
2023-04-09T01:31:28.327Z,97378.94
2023-04-09T01:33:55.535Z,97388.13
2023-04-09T01:36:24.103Z,97383.50
2023-04-09T01:38:52.420Z,97388.88
2023-04-09T01:41:21.976Z,97386.13
2023-04-09T01:43:50.787Z,97391.03
2023-04-09T01:46:19.289Z,97392.63
2023-04-09T01:48:46.821Z,97390.84
2023-04-09T01:51:14.254Z,97392.41
2023-04-09T01:53:41.807Z,97393.81
2023-04-09T01:56:09.447Z,97395.34
2023-04-09T01:58:36.196Z,97396.75
2023-04-09T02:01:41.499Z,97396.44
2023-04-09T02:04:30.761Z,97399.69
2023-04-09T02:07:26.077Z,97410.56
2023-04-09T02:09:54.565Z,97406.38
2023-04-09T02:12:22.022Z,97407.88
2023-04-09T02:14:52.382Z,97407.56
2023-04-09T02:17:19.409Z,97407.09
2023-04-09T02:19:47.765Z,97400.84
2023-04-09T02:22:16.121Z,97410.97
2023-04-09T02:24:42.653Z,97409.81
2023-04-09T02:27:09.245Z,97407.09
2023-04-09T02:29:35.801Z,97416.41
2023-04-09T02:32:02.441Z,97421.28
2023-04-09T02:34:28.891Z,97426.19
2023-04-09T02:36:55.402Z,97426.84
2023-04-09T02:39:21.962Z,97424.84
2023-04-09T02:41:48.394Z,97422.91
2023-04-09T02:44:14.844Z,97433.59
2023-04-09T02:46:42.431Z,97433.53
2023-04-09T02:49:09.027Z,97435.19
2023-04-09T02:51:36.409Z,97431.72
2023-04-09T02:54:04.076Z,97435.91
2023-04-09T02:56:30.654Z,97432.66
2023-04-09T02:58:57.126Z,97420.81
2023-04-09T03:01:23.583Z,97428.13
2023-04-09T03:03:50.439Z,97425.53
2023-04-09T03:06:18.445Z,97425.94
2023-04-09T03:08:45.235Z,97417.66
2023-04-09T03:11:11.654Z,97411.13
2023-04-09T03:13:38.041Z,97419.00
2023-04-09T03:16:04.705Z,97414.66
2023-04-09T03:18:31.332Z,97411.34
2023-04-09T03:20:57.781Z,97419.88
2023-04-09T03:23:24.276Z,97417.16
2023-04-09T03:26:00.374Z,97415.81
2023-04-09T03:28:26.800Z,97407.13
2023-04-09T03:30:53.363Z,97410.53
2023-04-09T03:33:19.906Z,97410.28
2023-04-09T03:35:46.358Z,97407.63
2023-04-09T03:38:12.757Z,97406.84
2023-04-09T03:40:39.318Z,97410.28
2023-04-09T03:43:05.658Z,97411.88
2023-04-09T03:45:32.080Z,97414.13
2023-04-09T03:47:58.447Z,97417.44
2023-04-09T03:50:25.009Z,97416.34
2023-04-09T03:52:51.418Z,97409.84
2023-04-09T03:55:17.776Z,97412.19
2023-04-09T03:57:44.191Z,97411.31
2023-04-09T04:00:11.019Z,97403.56
2023-04-09T04:02:37.631Z,97410.66
2023-04-09T04:05:04.508Z,97407.47
2023-04-09T04:07:32.251Z,97404.63
2023-04-09T04:09:58.686Z,97401.84
2023-04-09T04:12:25.213Z,97406.03
2023-04-09T04:14:51.730Z,97405.00
2023-04-09T04:17:18.180Z,97401.56
2023-04-09T04:19:44.624Z,97405.00
2023-04-09T04:22:11.282Z,97415.50
2023-04-09T04:24:37.771Z,97413.38
2023-04-09T04:27:04.405Z,97413.75
2023-04-09T04:29:30.855Z,97421.13
2023-04-09T04:31:57.233Z,97428.56
2023-04-09T04:34:23.711Z,97428.63
2023-04-09T04:36:50.163Z,97425.09
2023-04-09T04:39:16.509Z,97434.44
2023-04-09T04:41:42.936Z,97427.75
2023-04-09T04:44:09.517Z,97438.63
2023-04-09T04:46:35.900Z,97443.59
2023-04-09T04:49:02.440Z,97441.06
2023-04-09T04:51:31.526Z,97443.00
2023-04-09T04:53:57.992Z,97439.69
2023-04-09T04:56:24.450Z,97433.97
2023-04-09T04:58:50.988Z,97434.63
2023-04-09T05:01:17.717Z,97429.88
2023-04-09T05:03:44.321Z,97442.22
2023-04-09T05:06:11.130Z,97445.22
2023-04-09T05:08:37.514Z,97443.56
2023-04-09T05:11:03.985Z,97446.22
2023-04-09T05:13:30.412Z,97453.75
2023-04-09T05:15:56.882Z,97449.41
2023-04-09T05:18:23.290Z,97448.53
2023-04-09T05:20:49.760Z,97444.75
2023-04-09T05:23:16.278Z,97433.47
2023-04-09T05:25:42.697Z,97429.59
2023-04-09T05:28:11.201Z,97431.44
2023-04-09T05:30:37.742Z,97437.09
2023-04-09T05:33:04.242Z,97439.63
2023-04-09T05:35:30.887Z,97438.97
2023-04-09T05:37:57.437Z,97436.63
2023-04-09T05:40:24.014Z,97444.00
2023-04-09T05:42:50.436Z,97447.13
2023-04-09T05:45:16.866Z,97448.88
2023-04-09T05:47:43.299Z,97441.06
2023-04-09T05:50:10.245Z,97431.06
2023-04-09T05:52:36.885Z,97432.66
2023-04-09T05:55:03.743Z,97443.66
2023-04-09T05:57:31.734Z,97447.47
2023-04-09T05:59:58.471Z,97452.72
2023-04-09T06:02:25.272Z,97451.41
2023-04-09T06:04:51.988Z,97451.81
2023-04-09T06:07:18.586Z,97474.00
2023-04-09T06:09:46.786Z,97471.47
2023-04-09T06:12:13.527Z,97468.25
2023-04-09T06:14:39.903Z,97472.34
2023-04-09T06:17:06.275Z,97473.38
2023-04-09T06:19:32.751Z,97468.72
2023-04-09T06:21:59.284Z,97472.91
2023-04-09T06:24:26.042Z,97474.97
2023-04-09T06:26:52.439Z,97470.97
2023-04-09T06:29:18.920Z,97468.47
2023-04-09T06:31:45.353Z,97470.25
2023-04-09T06:34:11.752Z,97473.03
2023-04-09T06:36:40.193Z,97466.44
2023-04-09T06:39:07.124Z,97471.63
2023-04-09T06:41:33.693Z,97478.94
2023-04-09T06:44:00.573Z,97473.88
2023-04-09T06:46:27.224Z,97483.38
2023-04-09T06:48:53.904Z,97491.06
2023-04-09T06:51:20.362Z,97490.03
2023-04-09T06:53:48.314Z,97479.13
2023-04-09T06:56:14.897Z,97496.50
2023-04-09T06:58:41.389Z,97494.53
2023-04-09T07:01:08.045Z,97494.91
2023-04-09T07:03:34.624Z,97495.19
2023-04-09T07:06:01.243Z,97498.16
2023-04-09T07:08:28.610Z,97497.81
2023-04-09T07:10:55.028Z,97493.66
2023-04-09T07:13:21.561Z,97484.94
2023-04-09T07:15:48.136Z,97481.34
2023-04-09T07:18:14.558Z,97496.34
2023-04-09T07:20:41.034Z,97483.13
2023-04-09T07:23:07.524Z,97490.44
2023-04-09T07:25:34.077Z,97490.66
2023-04-09T07:28:00.617Z,97498.22
2023-04-09T07:30:27.416Z,97496.00
2023-04-09T07:32:54.271Z,97493.00
2023-04-09T07:35:20.877Z,97495.88
2023-04-09T07:37:47.410Z,97503.94
2023-04-09T07:40:14.034Z,97499.94
2023-04-09T07:42:40.757Z,97492.41
2023-04-09T07:45:07.645Z,97496.09
2023-04-09T07:47:34.145Z,97497.22
2023-04-09T07:50:00.721Z,97489.44
2023-04-09T07:52:27.278Z,97498.28
2023-04-09T07:54:53.796Z,97483.63
2023-04-09T07:57:20.156Z,97491.38
2023-04-09T07:59:46.682Z,97498.13
2023-04-09T08:02:15.398Z,97500.94
2023-04-09T08:04:42.372Z,97495.09
2023-04-09T08:07:10.516Z,97499.47
2023-04-09T08:09:36.949Z,97493.59
2023-04-09T08:12:03.802Z,97494.22
2023-04-09T08:14:30.371Z,97490.38
2023-04-09T08:16:56.805Z,97490.75
2023-04-09T08:19:23.262Z,97499.84
2023-04-09T08:21:49.755Z,97486.59
2023-04-09T08:24:16.347Z,97464.91
2023-04-09T08:26:43.033Z,97478.09
2023-04-09T08:29:12.276Z,97487.13
2023-04-09T08:31:39.390Z,97483.16
2023-04-09T08:34:06.209Z,97485.59
2023-04-09T08:36:34.605Z,97484.25
2023-04-09T08:39:01.883Z,97492.44
2023-04-09T08:41:29.282Z,97494.31
2023-04-09T08:43:58.963Z,97491.59
2023-04-09T08:46:27.274Z,97494.13
2023-04-09T08:48:54.244Z,97497.75
2023-04-09T08:51:22.720Z,97496.19
2023-04-09T08:53:58.371Z,97501.31
2023-04-09T08:56:26.039Z,97510.56
2023-04-09T08:58:53.399Z,97513.22
2023-04-09T09:01:24.697Z,97514.41
2023-04-09T09:03:56.420Z,97521.25
2023-04-09T09:06:32.949Z,97512.56
2023-04-09T09:09:16.751Z,97515.19
2023-04-09T09:11:45.729Z,97512.97
2023-04-09T09:14:14.325Z,97520.44
2023-04-09T09:16:43.680Z,97511.19
2023-04-09T09:19:25.284Z,97516.06
2023-04-09T09:21:58.607Z,97514.44
2023-04-09T09:24:25.042Z,97503.38
2023-04-09T09:26:52.180Z,97506.47
2023-04-09T09:29:19.795Z,97511.94
2023-04-09T09:31:49.180Z,97511.41
2023-04-09T09:34:17.288Z,97503.69
2023-04-09T09:36:44.293Z,97511.72
2023-04-09T09:39:12.957Z,97507.59
2023-04-09T09:41:41.159Z,97505.94
2023-04-09T09:44:08.923Z,97499.91
2023-04-09T09:46:38.519Z,97508.28
2023-04-09T09:49:05.883Z,97512.63
2023-04-09T09:51:33.919Z,97502.56
2023-04-09T09:54:01.070Z,97494.97
2023-04-09T09:56:32.725Z,97506.53
2023-04-09T09:59:22.791Z,97510.09
2023-04-09T10:01:59.645Z,97501.84
2023-04-09T10:04:29.483Z,97506.56
2023-04-09T10:06:57.610Z,97506.34
2023-04-09T10:09:27.876Z,97498.56
2023-04-09T10:11:55.963Z,97501.25
2023-04-09T10:14:23.069Z,97496.81
2023-04-09T10:16:49.830Z,97504.72
2023-04-09T10:19:16.999Z,97502.28
2023-04-09T10:21:53.651Z,97494.56
2023-04-09T10:24:20.543Z,97498.94
2023-04-09T10:26:47.051Z,97496.59
2023-04-09T10:29:15.918Z,97492.53
2023-04-09T10:31:53.059Z,97500.63
2023-04-09T10:34:23.307Z,97491.91
2023-04-09T10:36:53.422Z,97490.44
2023-04-09T10:39:20.040Z,97479.69
2023-04-09T10:41:48.923Z,97491.28
2023-04-09T10:44:23.422Z,97478.78
2023-04-09T10:46:55.797Z,97477.31
2023-04-09T10:49:27.050Z,97469.09
2023-04-09T10:51:53.496Z,97476.69
2023-04-09T10:54:34.973Z,97474.03
2023-04-09T10:57:07.429Z,97472.53
2023-04-09T10:59:42.872Z,97470.84
2023-04-09T11:02:29.191Z,97472.69
2023-04-09T11:05:34.117Z,97462.59
2023-04-09T11:08:06.477Z,97456.13
2023-04-09T11:10:33.785Z,97455.53
2023-04-09T11:13:01.081Z,97458.19
2023-04-09T11:15:27.824Z,97462.28
2023-04-09T11:17:54.539Z,97461.22
2023-04-09T11:20:23.049Z,97465.69
2023-04-09T11:22:51.891Z,97465.78
2023-04-09T11:25:26.633Z,97472.34
2023-04-09T11:27:53.557Z,97463.47
2023-04-09T11:30:20.593Z,97471.91
2023-04-09T11:32:48.067Z,97467.59
2023-04-09T11:35:16.382Z,97462.16
2023-04-09T11:37:44.228Z,97463.94
2023-04-09T11:40:22.543Z,97457.91
2023-04-09T11:42:57.886Z,97450.59
2023-04-09T11:45:27.508Z,97451.44
2023-04-09T11:47:54.213Z,97444.94
2023-04-09T11:50:21.713Z,97451.19
2023-04-09T11:52:49.173Z,97447.78
2023-04-09T11:55:25.745Z,97445.25
2023-04-09T11:57:56.654Z,97445.53
2023-04-09T12:00:24.839Z,97430.72
2023-04-09T12:02:59.820Z,97431.81
2023-04-09T12:05:29.811Z,97427.63
2023-04-09T12:08:05.101Z,97431.69
2023-04-09T12:10:33.998Z,97432.31
2023-04-09T12:13:10.414Z,97429.50
2023-04-09T12:15:39.022Z,97429.44
2023-04-09T12:18:09.471Z,97436.41
2023-04-09T12:20:39.588Z,97423.56
2023-04-09T12:23:07.578Z,97427.66
2023-04-09T12:25:36.868Z,97436.84
2023-04-09T12:28:05.650Z,97440.41
2023-04-09T12:30:33.063Z,97446.22
2023-04-09T12:32:59.596Z,97428.75
2023-04-09T12:35:26.841Z,97431.63
2023-04-09T12:37:53.535Z,97425.69
2023-04-09T12:40:20.927Z,97435.13
2023-04-09T12:42:48.158Z,97424.00
2023-04-09T12:45:16.958Z,97423.16
2023-04-09T12:47:44.075Z,97419.78
2023-04-09T12:50:11.788Z,97411.19
2023-04-09T12:52:38.510Z,97418.06
2023-04-09T12:55:06.287Z,97420.56
2023-04-09T12:57:33.278Z,97418.00
2023-04-09T13:00:00.399Z,97416.38
2023-04-09T13:02:27.105Z,97412.97
2023-04-09T13:04:53.843Z,97401.84
2023-04-09T13:07:20.530Z,97403.53
2023-04-09T13:09:50.716Z,97398.38
2023-04-09T13:12:17.707Z,97394.03
2023-04-09T13:14:46.496Z,97390.56
2023-04-09T13:17:13.300Z,97387.09
2023-04-09T13:19:42.119Z,97389.75
2023-04-09T13:22:09.493Z,97386.28
2023-04-09T13:24:36.451Z,97384.53
2023-04-09T13:27:09.440Z,97391.50
2023-04-09T13:29:36.147Z,97389.78
2023-04-09T13:32:07.019Z,97389.78
2023-04-09T13:34:35.187Z,97381.16
2023-04-09T13:37:03.204Z,97380.28
2023-04-09T13:39:29.725Z,97382.00
2023-04-09T13:41:56.684Z,97375.09
2023-04-09T13:44:24.778Z,97378.50
2023-04-09T13:46:51.497Z,97380.22
2023-04-09T13:49:18.203Z,97371.56
2023-04-09T13:51:45.189Z,97366.34
2023-04-09T13:54:11.732Z,97379.19
2023-04-09T13:56:39.186Z,97374.00
2023-04-09T13:59:06.340Z,97376.81
2023-04-09T14:01:33.852Z,97376.88
2023-04-09T14:04:00.641Z,97382.81
2023-04-09T14:06:27.159Z,97384.41
2023-04-09T14:08:53.983Z,97391.97
2023-04-09T14:11:20.686Z,97385.94
2023-04-09T14:13:48.274Z,97389.25
2023-04-09T14:16:14.752Z,97389.28
2023-04-09T14:18:41.688Z,97386.78
2023-04-09T14:21:10.124Z,97379.19
2023-04-09T14:23:37.341Z,97375.84
2023-04-09T14:26:04.741Z,97379.41
2023-04-09T14:28:32.104Z,97377.69
2023-04-09T14:31:01.479Z,97370.91
2023-04-09T14:33:28.133Z,97367.47
2023-04-09T14:35:54.800Z,97374.31
2023-04-09T14:38:21.471Z,97369.13
2023-04-09T14:40:47.884Z,97366.53
2023-04-09T14:43:14.433Z,97364.81
2023-04-09T14:45:40.994Z,97366.56
2023-04-09T14:48:07.916Z,97373.47
2023-04-09T14:50:35.352Z,97371.75
2023-04-09T14:53:02.465Z,97380.94
2023-04-09T14:55:29.180Z,97373.16
2023-04-09T14:57:55.702Z,97379.09
2023-04-09T15:00:22.429Z,97387.63
2023-04-09T15:02:49.065Z,97392.72
2023-04-09T15:05:15.990Z,97388.41
2023-04-09T15:07:43.647Z,97383.97
2023-04-09T15:10:10.812Z,97382.19
2023-04-09T15:12:37.225Z,97377.84
2023-04-09T15:15:08.914Z,97377.03
2023-04-09T15:20:02.353Z,97380.31
2023-04-09T15:22:28.692Z,97381.25
2023-04-09T15:24:55.637Z,97371.72
2023-04-09T15:27:22.046Z,97371.78
2023-04-09T15:29:48.521Z,97378.72
2023-04-09T15:32:14.992Z,97374.34
2023-04-09T15:34:41.465Z,97381.59
2023-04-09T15:37:07.883Z,97378.25
2023-04-09T15:39:35.034Z,97378.81
2023-04-09T15:42:01.969Z,97379.81
2023-04-09T15:44:28.432Z,97384.25
2023-04-09T15:46:54.826Z,97382.63
2023-04-09T15:49:21.882Z,97381.00
2023-04-09T15:51:48.421Z,97374.06
2023-04-09T15:54:14.882Z,97372.44
2023-04-09T15:56:41.555Z,97379.28
2023-04-09T15:59:08.525Z,97377.59
2023-04-09T16:01:36.292Z,97372.50
2023-04-09T16:04:04.309Z,97365.66
2023-04-09T16:06:30.922Z,97363.91
2023-04-09T16:08:57.453Z,97366.41
2023-04-09T16:11:23.955Z,97362.00
2023-04-09T16:13:50.446Z,97369.56
2023-04-09T16:16:16.882Z,97363.59
2023-04-09T16:18:43.697Z,97356.75
2023-04-09T16:21:10.184Z,97362.69
2023-04-09T16:23:36.696Z,97353.22
2023-04-09T16:26:03.740Z,97363.41
2023-04-09T16:28:30.283Z,97365.94
2023-04-09T16:30:56.801Z,97368.47
2023-04-09T16:33:23.245Z,97366.72
2023-04-09T16:35:49.765Z,97359.78
2023-04-09T16:38:16.180Z,97360.56
2023-04-09T16:40:43.906Z,97362.31
2023-04-09T16:43:10.327Z,97365.63
2023-04-09T16:45:36.860Z,97366.38
2023-04-09T16:48:06.073Z,97373.16
2023-04-09T16:50:32.880Z,97368.75
2023-04-09T16:53:01.046Z,97371.25
2023-04-09T16:55:27.496Z,97364.19
2023-04-09T16:57:55.879Z,97368.34
2023-04-09T17:00:22.445Z,97368.19
2023-04-09T17:02:49.147Z,97365.53
2023-04-09T17:05:17.790Z,97376.66
2023-04-09T17:07:44.499Z,97374.03
2023-04-09T17:10:11.448Z,97382.53
2023-04-09T17:12:38.452Z,97376.59
2023-04-09T17:15:05.691Z,97379.19
2023-04-09T17:17:33.309Z,97381.78
2023-04-09T17:20:01.436Z,97377.50
2023-04-09T17:22:28.158Z,97386.00
2023-04-09T17:24:54.698Z,97381.78
2023-04-09T17:27:21.209Z,97380.16
2023-04-09T17:29:47.825Z,97386.19
2023-04-09T17:32:14.261Z,97390.38
2023-04-09T17:34:40.725Z,97380.13
2023-04-09T17:37:07.282Z,97387.81
2023-04-09T17:39:33.724Z,97386.03
2023-04-09T17:42:01.590Z,97386.88
2023-04-09T17:44:28.310Z,97396.13
2023-04-09T17:46:54.872Z,97401.25
2023-04-09T17:49:22.401Z,97415.72
2023-04-09T17:51:48.936Z,97405.50
2023-04-09T17:54:15.404Z,97405.34
2023-04-09T17:56:41.881Z,97406.09
2023-04-09T17:59:08.422Z,97408.56
2023-04-09T18:01:35.063Z,97407.53
2023-04-09T18:04:02.053Z,97412.72
2023-04-09T18:06:29.175Z,97419.34
2023-04-09T18:08:55.602Z,97415.91
2023-04-09T18:11:23.632Z,97417.75
2023-04-09T18:13:52.762Z,97419.66
2023-04-09T18:16:20.919Z,97418.72
2023-04-09T18:18:47.610Z,97422.13
2023-04-09T18:21:15.178Z,97422.97
2023-04-09T18:23:41.726Z,97428.94
2023-04-09T18:26:08.254Z,97439.16
2023-04-09T18:28:35.432Z,97436.56
2023-04-09T18:31:02.110Z,97447.59
2023-04-09T18:33:28.645Z,97439.75
2023-04-09T18:35:56.372Z,97451.50
2023-04-09T18:38:23.029Z,97454.78
2023-04-09T18:40:49.546Z,97454.69
2023-04-09T18:43:16.187Z,97455.47
2023-04-09T18:45:50.308Z,97462.09
2023-04-09T18:48:18.082Z,97459.97
2023-04-09T18:50:44.817Z,97464.28
2023-04-09T18:53:11.521Z,97470.16
2023-04-09T18:55:38.480Z,97469.13
2023-04-09T18:58:08.654Z,97473.34
2023-04-09T19:00:35.816Z,97468.00
2023-04-09T19:03:03.157Z,97469.53
2023-04-09T19:05:31.635Z,97475.41
2023-04-09T19:07:59.573Z,97466.88
2023-04-09T19:10:27.092Z,97469.34
2023-04-09T19:12:54.362Z,97475.25
2023-04-09T19:15:22.057Z,97477.72
2023-04-09T19:17:49.170Z,97478.47
2023-04-09T19:20:15.830Z,97471.50
2023-04-09T19:22:47.930Z,97479.03
2023-04-09T19:25:15.849Z,97478.06
2023-04-09T19:27:42.348Z,97476.97
2023-04-09T19:30:09.656Z,97475.06
2023-04-09T19:32:36.317Z,97475.94
2023-04-09T19:35:03.450Z,97491.19
2023-04-09T19:37:30.444Z,97490.06
2023-04-09T19:39:58.360Z,97492.34
2023-04-09T19:42:25.039Z,97493.88
2023-04-09T19:44:51.497Z,97493.88
2023-04-09T19:47:17.949Z,97494.47
2023-04-09T19:49:44.710Z,97483.06
2023-04-09T19:52:11.566Z,97497.66
2023-04-09T19:54:38.372Z,97499.34
2023-04-09T19:57:04.978Z,97495.97
2023-04-09T19:59:36.097Z,97501.91
2023-04-09T20:02:03.159Z,97500.13
2023-04-09T20:04:30.908Z,97499.00
2023-04-09T20:06:57.612Z,97496.31
2023-04-09T20:09:26.301Z,97504.69
2023-04-09T20:11:53.830Z,97500.31
2023-04-09T20:14:21.010Z,97499.91
2023-04-09T20:16:47.917Z,97502.41
2023-04-09T20:19:14.506Z,97490.22
2023-04-09T20:21:41.867Z,97492.59
2023-04-09T20:24:08.317Z,97480.38
2023-04-09T20:26:34.773Z,97490.38
2023-04-09T20:29:01.815Z,97491.06
2023-04-09T20:31:28.593Z,97494.13
2023-04-09T20:33:55.183Z,97487.13
2023-04-09T20:36:21.622Z,97495.66
2023-04-09T20:38:48.102Z,97496.47
2023-04-09T20:41:14.527Z,97493.66
2023-04-09T20:43:41.233Z,97499.38
2023-04-09T20:46:07.783Z,97500.19
2023-04-09T20:48:34.253Z,97498.72
2023-04-09T20:51:01.601Z,97490.84
2023-04-09T20:53:28.564Z,97502.63
2023-04-09T20:55:55.223Z,97495.75
2023-04-09T20:58:21.723Z,97503.25
2023-04-09T21:00:48.166Z,97491.97
2023-04-09T21:03:15.878Z,97493.41
2023-04-09T21:05:42.452Z,97494.88
2023-04-09T21:08:14.526Z,97498.94
2023-04-09T21:10:41.091Z,97493.53
2023-04-09T21:13:07.573Z,97494.22
2023-04-09T21:15:34.040Z,97488.16
2023-04-09T21:18:00.618Z,97491.31
2023-04-09T21:20:27.187Z,97493.50
2023-04-09T21:22:54.428Z,97495.31
2023-04-09T21:25:21.024Z,97495.31
2023-04-09T21:27:47.465Z,97503.78
2023-04-09T21:30:14.154Z,97509.78
2023-04-09T21:32:40.735Z,97507.84
2023-04-09T21:35:07.677Z,97517.00
2023-04-09T21:37:34.346Z,97515.84
2023-04-09T21:40:01.057Z,97520.06
2023-04-09T21:42:27.675Z,97516.81
2023-04-09T21:44:54.144Z,97523.75
2023-04-09T21:47:20.819Z,97521.28
2023-04-09T21:49:47.796Z,97513.88
2023-04-09T21:52:15.029Z,97517.44
2023-04-09T21:54:43.404Z,97519.31
2023-04-09T21:57:12.976Z,97513.59
2023-04-09T21:59:41.209Z,97510.28
2023-04-09T22:02:08.970Z,97508.63
2023-04-09T22:04:35.610Z,97503.47
2023-04-09T22:07:03.553Z,97506.75
2023-04-09T22:09:31.362Z,97513.22
2023-04-09T22:11:59.386Z,97511.84
2023-04-09T22:14:29.208Z,97513.22
2023-04-09T22:17:01.284Z,97512.75
2023-04-09T22:19:29.707Z,97519.19
2023-04-09T22:21:56.202Z,97514.09
2023-04-09T22:24:26.985Z,97514.69
2023-04-09T22:26:53.737Z,97527.25
2023-04-09T22:29:20.145Z,97509.72
2023-04-09T22:31:46.788Z,97516.66
2023-04-09T22:34:20.942Z,97523.94
2023-04-09T22:36:48.497Z,97523.88
2023-04-09T22:39:15.090Z,97516.16
2023-04-09T22:41:41.539Z,97519.38
2023-04-09T22:44:09.373Z,97513.44
2023-04-09T22:46:36.074Z,97514.09
2023-04-09T22:49:05.401Z,97511.28
2023-04-09T22:51:34.667Z,97510.88
2023-04-09T22:54:01.832Z,97514.28
2023-04-09T22:56:28.682Z,97504.69
2023-04-09T22:58:55.486Z,97507.31
2023-04-09T23:01:23.147Z,97511.50
2023-04-09T23:03:50.409Z,97504.38
2023-04-09T23:06:17.201Z,97501.16
2023-04-09T23:08:44.366Z,97505.50
2023-04-09T23:11:11.113Z,97508.78
2023-04-09T23:13:38.561Z,97507.00
2023-04-09T23:16:09.219Z,97501.06
2023-04-09T23:18:36.456Z,97506.19
2023-04-09T23:21:07.080Z,97507.63
2023-04-09T23:23:34.454Z,97503.03
2023-04-09T23:26:01.276Z,97507.28
2023-04-09T23:28:28.197Z,97512.34
2023-04-09T23:30:55.306Z,97511.41
2023-04-09T23:33:21.768Z,97515.69
2023-04-09T23:35:48.538Z,97505.41
2023-04-09T23:38:15.602Z,97503.56
2023-04-09T23:40:42.892Z,97495.88
2023-04-09T23:43:09.692Z,97499.28
2023-04-09T23:45:36.092Z,97510.91
2023-04-09T23:48:03.499Z,97502.31
2023-04-09T23:50:30.289Z,97505.66
2023-04-09T23:53:03.331Z,97503.94
2023-04-09T23:55:29.920Z,97501.47
2023-04-09T23:57:56.779Z,97506.38
